sensor_id;sensor_type;location;lat;lon;timestamp;temperature;humidity
12688;DHT22;6408;59.388;17.798;2023-07-20T00:03:06;14.10;99.90
12688;DHT22;6408;59.388;17.798;2023-07-20T00:05:39;14.10;99.90
12688;DHT22;6408;59.388;17.798;2023-07-20T00:11:58;13.90;99.90
12688;DHT22;6408;59.388;17.798;2023-07-20T00:34:14;13.70;99.90
12688;DHT22;6408;59.388;17.798;2023-07-20T00:36:42;13.80;99.90
12688;DHT22;6408;59.388;17.798;2023-07-20T00:42:36;13.80;99.90
12688;DHT22;6408;59.388;17.798;2023-07-20T00:45:11;13.80;99.90
12688;DHT22;6408;59.388;17.798;2023-07-20T00:47:57;13.80;99.90
12688;DHT22;6408;59.388;17.798;2023-07-20T00:58:08;13.70;99.90
12688;DHT22;6408;59.388;17.798;2023-07-20T01:08:07;13.50;99.90
12688;DHT22;6408;59.388;17.798;2023-07-20T01:10:49;13.50;99.90
12688;DHT22;6408;59.388;17.798;2023-07-20T01:13:52;13.50;99.90
12688;DHT22;6408;59.388;17.798;2023-07-20T01:22:33;13.50;99.90
12688;DHT22;6408;59.388;17.798;2023-07-20T01:30:17;13.50;99.90
12688;DHT22;6408;59.388;17.798;2023-07-20T01:36:03;13.50;99.90
12688;DHT22;6408;59.388;17.798;2023-07-20T01:38:35;13.50;99.90
12688;DHT22;6408;59.388;17.798;2023-07-20T01:41:13;13.50;99.90
12688;DHT22;6408;59.388;17.798;2023-07-20T01:43:57;13.60;99.90
12688;DHT22;6408;59.388;17.798;2023-07-20T01:46:44;13.60;99.90
12688;DHT22;6408;59.388;17.798;2023-07-20T01:49:54;13.70;99.90
12688;DHT22;6408;59.388;17.798;2023-07-20T01:52:31;13.50;99.90
12688;DHT22;6408;59.388;17.798;2023-07-20T01:55:18;13.50;99.90
12688;DHT22;6408;59.388;17.798;2023-07-20T01:58:28;13.50;99.90
12688;DHT22;6408;59.388;17.798;2023-07-20T02:01:10;13.40;99.90
12688;DHT22;6408;59.388;17.798;2023-07-20T02:07:09;13.40;99.90
12688;DHT22;6408;59.388;17.798;2023-07-20T02:10:25;13.40;99.90
12688;DHT22;6408;59.388;17.798;2023-07-20T02:23:45;13.30;99.90
12688;DHT22;6408;59.388;17.798;2023-07-20T02:26:13;13.30;99.90
12688;DHT22;6408;59.388;17.798;2023-07-20T02:32:23;13.30;99.90
12688;DHT22;6408;59.388;17.798;2023-07-20T02:41:45;13.20;99.90
12688;DHT22;6408;59.388;17.798;2023-07-20T02:44:16;13.20;99.90
12688;DHT22;6408;59.388;17.798;2023-07-20T02:47:14;13.20;99.90
12688;DHT22;6408;59.388;17.798;2023-07-20T02:53:23;13.20;99.90
12688;DHT22;6408;59.388;17.798;2023-07-20T02:59:02;13.30;99.90
12688;DHT22;6408;59.388;17.798;2023-07-20T03:01:36;13.30;99.90
12688;DHT22;6408;59.388;17.798;2023-07-20T03:10:59;13.30;99.90
12688;DHT22;6408;59.388;17.798;2023-07-20T03:13:35;13.30;99.90
12688;DHT22;6408;59.388;17.798;2023-07-20T03:16:13;13.40;99.90
12688;DHT22;6408;59.388;17.798;2023-07-20T03:22:17;13.60;99.90
12688;DHT22;6408;59.388;17.798;2023-07-20T03:25:09;13.60;99.90
12688;DHT22;6408;59.388;17.798;2023-07-20T03:27:50;13.70;99.90
12688;DHT22;6408;59.388;17.798;2023-07-20T03:30:19;13.80;99.90
12688;DHT22;6408;59.388;17.798;2023-07-20T03:36:36;13.90;99.90
12688;DHT22;6408;59.388;17.798;2023-07-20T03:39:14;14.00;99.90
12688;DHT22;6408;59.388;17.798;2023-07-20T03:45:16;14.20;99.90
12688;DHT22;6408;59.388;17.798;2023-07-20T03:50:53;14.40;99.90
12688;DHT22;6408;59.388;17.798;2023-07-20T03:54:03;14.40;99.90
12688;DHT22;6408;59.388;17.798;2023-07-20T04:10:21;14.80;99.90
12688;DHT22;6408;59.388;17.798;2023-07-20T04:13:42;15.00;99.90
12688;DHT22;6408;59.388;17.798;2023-07-20T04:16:54;15.00;99.90
12688;DHT22;6408;59.388;17.798;2023-07-20T04:19:35;15.00;99.90
12688;DHT22;6408;59.388;17.798;2023-07-20T04:22:04;15.10;99.90
12688;DHT22;6408;59.388;17.798;2023-07-20T04:24:36;15.20;99.90
12688;DHT22;6408;59.388;17.798;2023-07-20T04:27:16;15.40;99.90
12688;DHT22;6408;59.388;17.798;2023-07-20T04:30:12;15.50;99.90
12688;DHT22;6408;59.388;17.798;2023-07-20T04:32:40;15.70;99.90
12688;DHT22;6408;59.388;17.798;2023-07-20T04:35:17;15.90;99.90
12688;DHT22;6408;59.388;17.798;2023-07-20T04:37:49;16.00;99.90
12688;DHT22;6408;59.388;17.798;2023-07-20T04:40:37;16.10;99.90
12688;DHT22;6408;59.388;17.798;2023-07-20T04:43:07;16.20;99.90
12688;DHT22;6408;59.388;17.798;2023-07-20T04:45:43;16.30;99.90
12688;DHT22;6408;59.388;17.798;2023-07-20T04:48:12;16.40;99.90
12688;DHT22;6408;59.388;17.798;2023-07-20T04:50:53;16.50;99.90
12688;DHT22;6408;59.388;17.798;2023-07-20T04:53:24;16.60;99.90
12688;DHT22;6408;59.388;17.798;2023-07-20T04:55:55;16.60;99.90
12688;DHT22;6408;59.388;17.798;2023-07-20T04:58:25;16.90;99.90
12688;DHT22;6408;59.388;17.798;2023-07-20T05:00:54;17.00;99.90
12688;DHT22;6408;59.388;17.798;2023-07-20T05:03:24;16.90;99.90
12688;DHT22;6408;59.388;17.798;2023-07-20T05:05:52;16.90;99.90
12688;DHT22;6408;59.388;17.798;2023-07-20T05:11:25;16.90;99.90
12688;DHT22;6408;59.388;17.798;2023-07-20T05:17:06;17.10;99.90
12688;DHT22;6408;59.388;17.798;2023-07-20T05:19:35;17.00;99.90
12688;DHT22;6408;59.388;17.798;2023-07-20T05:22:48;17.00;99.90
12688;DHT22;6408;59.388;17.798;2023-07-20T05:38:33;17.00;99.90
12688;DHT22;6408;59.388;17.798;2023-07-20T05:48:05;17.50;99.90
12688;DHT22;6408;59.388;17.798;2023-07-20T05:51:02;17.50;99.90
12688;DHT22;6408;59.388;17.798;2023-07-20T05:54:08;17.50;99.90
12688;DHT22;6408;59.388;17.798;2023-07-20T05:56:42;17.20;99.90
12688;DHT22;6408;59.388;17.798;2023-07-20T05:59:24;16.90;99.90
12688;DHT22;6408;59.388;17.798;2023-07-20T06:05:42;16.90;99.90
12688;DHT22;6408;59.388;17.798;2023-07-20T06:09:09;17.10;99.90
12688;DHT22;6408;59.388;17.798;2023-07-20T07:03:56;19.90;99.90
12688;DHT22;6408;59.388;17.798;2023-07-20T07:06:42;19.90;99.90
12688;DHT22;6408;59.388;17.798;2023-07-20T07:09:10;19.80;99.90
12688;DHT22;6408;59.388;17.798;2023-07-20T07:11:41;19.90;99.90
12688;DHT22;6408;59.388;17.798;2023-07-20T07:14:15;20.00;99.90
12688;DHT22;6408;59.388;17.798;2023-07-20T07:16:43;20.10;99.90
12688;DHT22;6408;59.388;17.798;2023-07-20T07:19:21;20.10;99.90
12688;DHT22;6408;59.388;17.798;2023-07-20T07:21:53;20.10;99.90
12688;DHT22;6408;59.388;17.798;2023-07-20T07:24:23;20.20;99.90
12688;DHT22;6408;59.388;17.798;2023-07-20T07:26:51;20.20;99.90
12688;DHT22;6408;59.388;17.798;2023-07-20T07:29:32;19.90;99.90
12688;DHT22;6408;59.388;17.798;2023-07-20T07:32:24;19.70;99.90
12688;DHT22;6408;59.388;17.798;2023-07-20T07:34:56;20.00;99.90
12688;DHT22;6408;59.388;17.798;2023-07-20T07:37:26;20.20;99.90
12688;DHT22;6408;59.388;17.798;2023-07-20T07:39:55;20.30;99.90
12688;DHT22;6408;59.388;17.798;2023-07-20T07:42:37;20.50;99.90
12688;DHT22;6408;59.388;17.798;2023-07-20T07:45:06;20.50;99.90
12688;DHT22;6408;59.388;17.798;2023-07-20T07:47:42;20.50;99.90
12688;DHT22;6408;59.388;17.798;2023-07-20T07:53:55;20.90;99.90
12688;DHT22;6408;59.388;17.798;2023-07-20T07:56:23;20.90;99.90
12688;DHT22;6408;59.388;17.798;2023-07-20T07:59:20;20.90;99.90
12688;DHT22;6408;59.388;17.798;2023-07-20T08:05:49;21.20;99.90
12688;DHT22;6408;59.388;17.798;2023-07-20T08:08:31;21.30;99.90
12688;DHT22;6408;59.388;17.798;2023-07-20T08:11:26;21.50;99.90
12688;DHT22;6408;59.388;17.798;2023-07-20T08:13:56;21.40;99.90
12688;DHT22;6408;59.388;17.798;2023-07-20T08:16:23;21.20;99.90
12688;DHT22;6408;59.388;17.798;2023-07-20T08:18:51;21.00;99.90
12688;DHT22;6408;59.388;17.798;2023-07-20T08:21:18;20.90;99.90
12688;DHT22;6408;59.388;17.798;2023-07-20T08:23:46;20.60;99.90
12688;DHT22;6408;59.388;17.798;2023-07-20T08:26:13;20.50;99.90
12688;DHT22;6408;59.388;17.798;2023-07-20T08:28:43;20.40;99.90
12688;DHT22;6408;59.388;17.798;2023-07-20T08:31:11;20.40;99.90
12688;DHT22;6408;59.388;17.798;2023-07-20T08:33:38;20.50;99.90
12688;DHT22;6408;59.388;17.798;2023-07-20T08:36:06;21.00;99.90
12688;DHT22;6408;59.388;17.798;2023-07-20T08:38:34;21.50;99.90
12688;DHT22;6408;59.388;17.798;2023-07-20T08:41:02;21.60;99.90
12688;DHT22;6408;59.388;17.798;2023-07-20T08:43:30;22.00;99.90
12688;DHT22;6408;59.388;17.798;2023-07-20T08:46:00;22.40;99.90
12688;DHT22;6408;59.388;17.798;2023-07-20T08:48:28;22.50;99.90
12688;DHT22;6408;59.388;17.798;2023-07-20T08:50:58;22.40;99.90
12688;DHT22;6408;59.388;17.798;2023-07-20T08:53:27;22.40;99.90
12688;DHT22;6408;59.388;17.798;2023-07-20T08:55:55;22.30;99.90
12688;DHT22;6408;59.388;17.798;2023-07-20T08:58:23;22.10;99.90
12688;DHT22;6408;59.388;17.798;2023-07-20T09:00:54;22.00;99.90
12688;DHT22;6408;59.388;17.798;2023-07-20T09:03:26;22.10;99.90
12688;DHT22;6408;59.388;17.798;2023-07-20T09:05:54;22.00;99.90
12688;DHT22;6408;59.388;17.798;2023-07-20T09:08:21;21.80;99.90
12688;DHT22;6408;59.388;17.798;2023-07-20T09:10:48;21.80;99.90
12688;DHT22;6408;59.388;17.798;2023-07-20T09:13:16;21.90;99.90
12688;DHT22;6408;59.388;17.798;2023-07-20T09:15:47;22.30;99.90
12688;DHT22;6408;59.388;17.798;2023-07-20T09:18:24;22.70;99.90
12688;DHT22;6408;59.388;17.798;2023-07-20T09:20:53;22.90;99.90
12688;DHT22;6408;59.388;17.798;2023-07-20T09:23:30;23.00;99.90
12688;DHT22;6408;59.388;17.798;2023-07-20T09:25:58;22.80;99.90
12688;DHT22;6408;59.388;17.798;2023-07-20T09:28:26;22.60;99.90
12688;DHT22;6408;59.388;17.798;2023-07-20T09:30:54;22.80;99.90
12688;DHT22;6408;59.388;17.798;2023-07-20T09:33:22;23.10;99.90
12688;DHT22;6408;59.388;17.798;2023-07-20T09:35:50;23.20;99.90
12688;DHT22;6408;59.388;17.798;2023-07-20T09:38:18;23.20;99.90
12688;DHT22;6408;59.388;17.798;2023-07-20T09:40:46;23.30;99.90
12688;DHT22;6408;59.388;17.798;2023-07-20T09:43:15;23.10;99.90
12688;DHT22;6408;59.388;17.798;2023-07-20T09:45:43;22.70;99.90
12688;DHT22;6408;59.388;17.798;2023-07-20T09:48:11;22.30;99.90
12688;DHT22;6408;59.388;17.798;2023-07-20T09:50:43;22.30;99.90
12688;DHT22;6408;59.388;17.798;2023-07-20T09:53:18;22.10;99.90
12688;DHT22;6408;59.388;17.798;2023-07-20T09:55:46;22.00;99.90
12688;DHT22;6408;59.388;17.798;2023-07-20T09:58:13;21.90;99.90
12688;DHT22;6408;59.388;17.798;2023-07-20T10:00:42;21.90;99.90
12688;DHT22;6408;59.388;17.798;2023-07-20T10:03:16;22.00;99.90
12688;DHT22;6408;59.388;17.798;2023-07-20T10:05:48;22.20;99.90
12688;DHT22;6408;59.388;17.798;2023-07-20T10:08:24;22.00;99.90
12688;DHT22;6408;59.388;17.798;2023-07-20T10:10:51;21.80;99.90
12688;DHT22;6408;59.388;17.798;2023-07-20T10:13:26;21.70;99.90
12688;DHT22;6408;59.388;17.798;2023-07-20T10:15:54;21.20;99.90
12688;DHT22;6408;59.388;17.798;2023-07-20T10:18:29;20.90;99.90
12688;DHT22;6408;59.388;17.798;2023-07-20T10:20:59;21.10;99.90
12688;DHT22;6408;59.388;17.798;2023-07-20T10:23:31;21.40;99.90
12688;DHT22;6408;59.388;17.798;2023-07-20T10:26:01;21.60;99.90
12688;DHT22;6408;59.388;17.798;2023-07-20T10:28:29;21.70;99.90
12688;DHT22;6408;59.388;17.798;2023-07-20T10:30:56;21.90;99.90
12688;DHT22;6408;59.388;17.798;2023-07-20T10:33:24;21.90;99.90
12688;DHT22;6408;59.388;17.798;2023-07-20T10:35:53;21.90;99.90
12688;DHT22;6408;59.388;17.798;2023-07-20T10:38:39;22.10;99.90
12688;DHT22;6408;59.388;17.798;2023-07-20T10:41:17;22.10;99.90
12688;DHT22;6408;59.388;17.798;2023-07-20T10:43:46;21.70;99.90
12688;DHT22;6408;59.388;17.798;2023-07-20T10:46:14;21.40;99.90
12688;DHT22;6408;59.388;17.798;2023-07-20T10:49:01;21.90;99.90
12688;DHT22;6408;59.388;17.798;2023-07-20T10:51:29;22.50;99.90
12688;DHT22;6408;59.388;17.798;2023-07-20T10:54:02;22.60;99.90
12688;DHT22;6408;59.388;17.798;2023-07-20T10:56:29;22.80;99.90
12688;DHT22;6408;59.388;17.798;2023-07-20T10:58:58;22.90;99.90
12688;DHT22;6408;59.388;17.798;2023-07-20T11:01:28;22.60;99.90
12688;DHT22;6408;59.388;17.798;2023-07-20T11:03:58;22.10;99.90
12688;DHT22;6408;59.388;17.798;2023-07-20T11:06:32;21.90;99.90
12688;DHT22;6408;59.388;17.798;2023-07-20T11:09:07;22.20;99.90
12688;DHT22;6408;59.388;17.798;2023-07-20T11:11:37;22.60;99.90
12688;DHT22;6408;59.388;17.798;2023-07-20T11:14:06;23.10;99.90
12688;DHT22;6408;59.388;17.798;2023-07-20T11:16:40;23.20;99.90
12688;DHT22;6408;59.388;17.798;2023-07-20T11:19:17;22.90;99.90
12688;DHT22;6408;59.388;17.798;2023-07-20T11:21:46;22.80;99.90
12688;DHT22;6408;59.388;17.798;2023-07-20T11:24:16;22.90;99.90
12688;DHT22;6408;59.388;17.798;2023-07-20T11:26:45;23.20;99.90
12688;DHT22;6408;59.388;17.798;2023-07-20T11:29:12;23.50;99.90
12688;DHT22;6408;59.388;17.798;2023-07-20T11:31:41;23.80;99.90
12688;DHT22;6408;59.388;17.798;2023-07-20T11:34:10;23.90;99.90
12688;DHT22;6408;59.388;17.798;2023-07-20T11:36:39;24.10;99.90
12688;DHT22;6408;59.388;17.798;2023-07-20T11:39:08;24.20;99.90
12688;DHT22;6408;59.388;17.798;2023-07-20T11:41:38;24.50;99.90
12688;DHT22;6408;59.388;17.798;2023-07-20T11:44:06;24.60;99.90
12688;DHT22;6408;59.388;17.798;2023-07-20T11:46:33;24.60;99.90
12688;DHT22;6408;59.388;17.798;2023-07-20T11:49:01;24.70;99.90
12688;DHT22;6408;59.388;17.798;2023-07-20T11:51:29;24.80;99.90
12688;DHT22;6408;59.388;17.798;2023-07-20T11:53:57;24.90;99.90
12688;DHT22;6408;59.388;17.798;2023-07-20T11:56:25;24.90;99.90
12688;DHT22;6408;59.388;17.798;2023-07-20T11:58:58;24.90;99.90
12688;DHT22;6408;59.388;17.798;2023-07-20T12:01:28;24.40;99.90
12688;DHT22;6408;59.388;17.798;2023-07-20T12:03:57;23.70;99.90
12688;DHT22;6408;59.388;17.798;2023-07-20T12:06:28;23.10;99.90
12688;DHT22;6408;59.388;17.798;2023-07-20T12:08:57;22.70;99.90
12688;DHT22;6408;59.388;17.798;2023-07-20T12:11:31;22.40;99.90
12688;DHT22;6408;59.388;17.798;2023-07-20T12:14:02;22.30;99.90
12688;DHT22;6408;59.388;17.798;2023-07-20T12:16:30;22.20;99.90
12688;DHT22;6408;59.388;17.798;2023-07-20T12:19:01;22.20;99.90
12688;DHT22;6408;59.388;17.798;2023-07-20T12:21:29;22.00;99.90
12688;DHT22;6408;59.388;17.798;2023-07-20T12:23:57;21.70;99.90
12688;DHT22;6408;59.388;17.798;2023-07-20T12:26:25;21.80;99.90
12688;DHT22;6408;59.388;17.798;2023-07-20T12:28:53;21.60;99.90
12688;DHT22;6408;59.388;17.798;2023-07-20T12:31:22;21.70;99.90
12688;DHT22;6408;59.388;17.798;2023-07-20T12:33:49;21.60;99.90
12688;DHT22;6408;59.388;17.798;2023-07-20T12:36:18;21.50;99.90
12688;DHT22;6408;59.388;17.798;2023-07-20T12:38:45;21.50;99.90
12688;DHT22;6408;59.388;17.798;2023-07-20T12:41:13;21.30;99.90
12688;DHT22;6408;59.388;17.798;2023-07-20T12:43:41;21.10;99.90
12688;DHT22;6408;59.388;17.798;2023-07-20T12:46:09;20.90;99.90
12688;DHT22;6408;59.388;17.798;2023-07-20T12:48:39;20.80;99.90
12688;DHT22;6408;59.388;17.798;2023-07-20T12:51:08;20.60;99.90
12688;DHT22;6408;59.388;17.798;2023-07-20T12:53:35;20.50;99.90
12688;DHT22;6408;59.388;17.798;2023-07-20T12:56:03;20.50;99.90
12688;DHT22;6408;59.388;17.798;2023-07-20T12:58:31;20.50;99.90
12688;DHT22;6408;59.388;17.798;2023-07-20T13:00:58;20.70;99.90
12688;DHT22;6408;59.388;17.798;2023-07-20T13:03:26;20.70;99.90
12688;DHT22;6408;59.388;17.798;2023-07-20T13:05:55;20.90;99.90
12688;DHT22;6408;59.388;17.798;2023-07-20T13:08:23;20.90;99.90
12688;DHT22;6408;59.388;17.798;2023-07-20T13:10:52;21.10;99.90
12688;DHT22;6408;59.388;17.798;2023-07-20T13:13:20;20.90;99.90
12688;DHT22;6408;59.388;17.798;2023-07-20T13:15:47;20.80;99.90
12688;DHT22;6408;59.388;17.798;2023-07-20T13:18:15;20.70;99.90
12688;DHT22;6408;59.388;17.798;2023-07-20T13:20:44;20.90;99.90
12688;DHT22;6408;59.388;17.798;2023-07-20T13:23:12;21.00;99.90
12688;DHT22;6408;59.388;17.798;2023-07-20T13:25:40;20.90;99.90
12688;DHT22;6408;59.388;17.798;2023-07-20T13:28:08;20.90;99.90
12688;DHT22;6408;59.388;17.798;2023-07-20T13:30:35;21.10;99.90
12688;DHT22;6408;59.388;17.798;2023-07-20T13:33:02;21.00;99.90
12688;DHT22;6408;59.388;17.798;2023-07-20T13:35:30;20.80;99.90
12688;DHT22;6408;59.388;17.798;2023-07-20T13:37:57;20.80;99.90
12688;DHT22;6408;59.388;17.798;2023-07-20T13:40:26;20.70;99.90
12688;DHT22;6408;59.388;17.798;2023-07-20T13:42:54;20.90;99.90
12688;DHT22;6408;59.388;17.798;2023-07-20T13:45:22;21.40;99.90
12688;DHT22;6408;59.388;17.798;2023-07-20T13:47:49;21.90;99.90
12688;DHT22;6408;59.388;17.798;2023-07-20T13:50:17;22.10;99.90
12688;DHT22;6408;59.388;17.798;2023-07-20T13:52:44;21.90;99.90
12688;DHT22;6408;59.388;17.798;2023-07-20T13:55:11;21.70;99.90
12688;DHT22;6408;59.388;17.798;2023-07-20T13:57:41;21.50;99.90
12688;DHT22;6408;59.388;17.798;2023-07-20T14:00:10;21.40;99.90
12688;DHT22;6408;59.388;17.798;2023-07-20T14:02:39;21.50;99.90
12688;DHT22;6408;59.388;17.798;2023-07-20T14:05:07;21.80;99.90
12688;DHT22;6408;59.388;17.798;2023-07-20T14:07:35;22.00;99.90
12688;DHT22;6408;59.388;17.798;2023-07-20T14:10:03;22.20;99.90
12688;DHT22;6408;59.388;17.798;2023-07-20T14:12:30;21.90;99.90
12688;DHT22;6408;59.388;17.798;2023-07-20T14:14:59;21.60;99.90
12688;DHT22;6408;59.388;17.798;2023-07-20T14:17:27;21.30;99.90
12688;DHT22;6408;59.388;17.798;2023-07-20T14:19:54;21.60;99.90
12688;DHT22;6408;59.388;17.798;2023-07-20T14:22:21;21.60;99.90
12688;DHT22;6408;59.388;17.798;2023-07-20T14:24:49;21.40;99.90
12688;DHT22;6408;59.388;17.798;2023-07-20T14:27:16;21.10;99.90
12688;DHT22;6408;59.388;17.798;2023-07-20T14:29:44;21.00;99.90
12688;DHT22;6408;59.388;17.798;2023-07-20T14:32:13;21.00;99.90
12688;DHT22;6408;59.388;17.798;2023-07-20T14:34:40;20.90;99.90
12688;DHT22;6408;59.388;17.798;2023-07-20T14:37:08;21.00;99.90
12688;DHT22;6408;59.388;17.798;2023-07-20T14:39:36;21.10;99.90
12688;DHT22;6408;59.388;17.798;2023-07-20T14:42:04;21.40;99.90
12688;DHT22;6408;59.388;17.798;2023-07-20T14:44:33;21.60;99.90
12688;DHT22;6408;59.388;17.798;2023-07-20T14:47:00;21.60;99.90
12688;DHT22;6408;59.388;17.798;2023-07-20T14:49:30;21.60;99.90
12688;DHT22;6408;59.388;17.798;2023-07-20T14:51:57;21.20;99.90
12688;DHT22;6408;59.388;17.798;2023-07-20T14:54:25;21.00;99.90
12688;DHT22;6408;59.388;17.798;2023-07-20T14:56:52;20.90;99.90
12688;DHT22;6408;59.388;17.798;2023-07-20T14:59:20;20.80;99.90
12688;DHT22;6408;59.388;17.798;2023-07-20T15:01:47;20.80;99.90
12688;DHT22;6408;59.388;17.798;2023-07-20T15:04:15;20.80;99.90
12688;DHT22;6408;59.388;17.798;2023-07-20T15:06:44;20.60;99.90
12688;DHT22;6408;59.388;17.798;2023-07-20T15:09:11;20.60;99.90
12688;DHT22;6408;59.388;17.798;2023-07-20T15:11:38;20.60;99.90
12688;DHT22;6408;59.388;17.798;2023-07-20T15:14:06;20.60;99.90
12688;DHT22;6408;59.388;17.798;2023-07-20T15:16:33;20.40;99.90
12688;DHT22;6408;59.388;17.798;2023-07-20T15:19:01;20.50;99.90
12688;DHT22;6408;59.388;17.798;2023-07-20T15:21:28;20.60;99.90
12688;DHT22;6408;59.388;17.798;2023-07-20T15:23:58;20.60;99.90
12688;DHT22;6408;59.388;17.798;2023-07-20T15:26:26;20.60;99.90
12688;DHT22;6408;59.388;17.798;2023-07-20T15:28:53;20.40;99.90
12688;DHT22;6408;59.388;17.798;2023-07-20T15:31:21;20.40;99.90
12688;DHT22;6408;59.388;17.798;2023-07-20T15:33:49;20.40;99.90
12688;DHT22;6408;59.388;17.798;2023-07-20T15:36:18;20.40;99.90
12688;DHT22;6408;59.388;17.798;2023-07-20T15:38:45;20.30;99.90
12688;DHT22;6408;59.388;17.798;2023-07-20T15:41:15;20.40;99.90
12688;DHT22;6408;59.388;17.798;2023-07-20T15:43:42;20.50;99.90
12688;DHT22;6408;59.388;17.798;2023-07-20T15:49:10;20.50;99.90
12688;DHT22;6408;59.388;17.798;2023-07-20T15:51:37;20.40;99.90
12688;DHT22;6408;59.388;17.798;2023-07-20T15:54:05;20.70;99.90
12688;DHT22;6408;59.388;17.798;2023-07-20T15:56:36;21.00;99.90
12688;DHT22;6408;59.388;17.798;2023-07-20T15:59:04;21.20;99.90
12688;DHT22;6408;59.388;17.798;2023-07-20T16:01:32;21.40;99.90
12688;DHT22;6408;59.388;17.798;2023-07-20T16:04:01;21.30;99.90
12688;DHT22;6408;59.388;17.798;2023-07-20T16:06:28;21.50;99.90
12688;DHT22;6408;59.388;17.798;2023-07-20T16:08:56;21.40;99.90
12688;DHT22;6408;59.388;17.798;2023-07-20T16:11:23;21.50;99.90
12688;DHT22;6408;59.388;17.798;2023-07-20T16:13:52;21.40;99.90
12688;DHT22;6408;59.388;17.798;2023-07-20T16:16:20;21.20;99.90
12688;DHT22;6408;59.388;17.798;2023-07-20T16:18:48;21.30;99.90
12688;DHT22;6408;59.388;17.798;2023-07-20T16:21:16;21.30;99.90
12688;DHT22;6408;59.388;17.798;2023-07-20T16:23:43;21.50;99.90
12688;DHT22;6408;59.388;17.798;2023-07-20T16:26:10;21.50;99.90
12688;DHT22;6408;59.388;17.798;2023-07-20T16:28:38;21.30;99.90
12688;DHT22;6408;59.388;17.798;2023-07-20T16:31:11;21.30;99.90
12688;DHT22;6408;59.388;17.798;2023-07-20T16:33:41;21.40;99.90
12688;DHT22;6408;59.388;17.798;2023-07-20T16:36:08;21.40;99.90
12688;DHT22;6408;59.388;17.798;2023-07-20T16:38:36;21.30;99.90
12688;DHT22;6408;59.388;17.798;2023-07-20T16:41:06;21.20;99.90
12688;DHT22;6408;59.388;17.798;2023-07-20T16:43:34;21.20;99.90
12688;DHT22;6408;59.388;17.798;2023-07-20T16:46:02;21.10;99.90
12688;DHT22;6408;59.388;17.798;2023-07-20T16:48:32;20.90;99.90
12688;DHT22;6408;59.388;17.798;2023-07-20T16:51:00;20.90;99.90
12688;DHT22;6408;59.388;17.798;2023-07-20T16:53:28;20.80;99.90
12688;DHT22;6408;59.388;17.798;2023-07-20T16:55:56;20.90;99.90
12688;DHT22;6408;59.388;17.798;2023-07-20T16:58:26;20.80;99.90
12688;DHT22;6408;59.388;17.798;2023-07-20T17:00:59;20.60;99.90
12688;DHT22;6408;59.388;17.798;2023-07-20T17:03:27;20.50;99.90
12688;DHT22;6408;59.388;17.798;2023-07-20T17:05:57;20.20;99.90
12688;DHT22;6408;59.388;17.798;2023-07-20T17:08:24;20.10;99.90
12688;DHT22;6408;59.388;17.798;2023-07-20T17:10:52;19.80;99.90
12688;DHT22;6408;59.388;17.798;2023-07-20T17:13:19;19.70;99.90
12688;DHT22;6408;59.388;17.798;2023-07-20T17:15:47;19.60;99.90
12688;DHT22;6408;59.388;17.798;2023-07-20T17:18:15;19.50;99.90
12688;DHT22;6408;59.388;17.798;2023-07-20T17:20:44;19.60;99.90
12688;DHT22;6408;59.388;17.798;2023-07-20T17:23:13;19.50;99.90
12688;DHT22;6408;59.388;17.798;2023-07-20T17:25:43;19.50;99.90
12688;DHT22;6408;59.388;17.798;2023-07-20T17:28:11;19.40;99.90
12688;DHT22;6408;59.388;17.798;2023-07-20T17:30:38;19.30;99.90
12688;DHT22;6408;59.388;17.798;2023-07-20T17:33:06;19.10;99.90
12688;DHT22;6408;59.388;17.798;2023-07-20T17:35:34;18.80;99.90
12688;DHT22;6408;59.388;17.798;2023-07-20T17:38:01;18.50;99.90
12688;DHT22;6408;59.388;17.798;2023-07-20T17:40:30;18.30;99.90
12688;DHT22;6408;59.388;17.798;2023-07-20T17:42:58;18.10;99.90
12688;DHT22;6408;59.388;17.798;2023-07-20T17:45:25;18.00;99.90
12688;DHT22;6408;59.388;17.798;2023-07-20T17:47:53;17.80;99.90
12688;DHT22;6408;59.388;17.798;2023-07-20T17:50:20;17.70;99.90
12688;DHT22;6408;59.388;17.798;2023-07-20T17:52:47;17.70;99.90
12688;DHT22;6408;59.388;17.798;2023-07-20T17:55:15;17.80;99.90
12688;DHT22;6408;59.388;17.798;2023-07-20T17:57:44;17.80;99.90
12688;DHT22;6408;59.388;17.798;2023-07-20T18:00:13;17.80;99.90
12688;DHT22;6408;59.388;17.798;2023-07-20T18:02:41;17.90;99.90
12688;DHT22;6408;59.388;17.798;2023-07-20T18:05:09;18.00;99.90
12688;DHT22;6408;59.388;17.798;2023-07-20T18:07:36;18.10;99.90
12688;DHT22;6408;59.388;17.798;2023-07-20T18:10:07;18.30;99.90
12688;DHT22;6408;59.388;17.798;2023-07-20T18:12:34;18.30;99.90
12688;DHT22;6408;59.388;17.798;2023-07-20T18:15:05;18.30;99.90
12688;DHT22;6408;59.388;17.798;2023-07-20T18:17:35;18.40;99.90
12688;DHT22;6408;59.388;17.798;2023-07-20T18:20:05;18.40;99.90
12688;DHT22;6408;59.388;17.798;2023-07-20T18:22:35;18.40;99.90
12688;DHT22;6408;59.388;17.798;2023-07-20T18:25:03;18.20;99.90
12688;DHT22;6408;59.388;17.798;2023-07-20T18:27:31;18.20;99.90
12688;DHT22;6408;59.388;17.798;2023-07-20T18:29:58;18.20;99.90
12688;DHT22;6408;59.388;17.798;2023-07-20T18:32:27;18.10;99.90
12688;DHT22;6408;59.388;17.798;2023-07-20T18:34:55;18.00;99.90
12688;DHT22;6408;59.388;17.798;2023-07-20T18:37:22;17.90;99.90
12688;DHT22;6408;59.388;17.798;2023-07-20T18:39:50;17.80;99.90
12688;DHT22;6408;59.388;17.798;2023-07-20T18:42:18;17.70;99.90
12688;DHT22;6408;59.388;17.798;2023-07-20T18:44:45;17.60;99.90
12688;DHT22;6408;59.388;17.798;2023-07-20T18:47:13;17.50;99.90
12688;DHT22;6408;59.388;17.798;2023-07-20T18:49:42;17.40;99.90
12688;DHT22;6408;59.388;17.798;2023-07-20T18:52:09;17.40;99.90
12688;DHT22;6408;59.388;17.798;2023-07-20T18:54:36;17.40;99.90
12688;DHT22;6408;59.388;17.798;2023-07-20T18:57:04;17.30;99.90
12688;DHT22;6408;59.388;17.798;2023-07-20T18:59:34;17.30;99.90
12688;DHT22;6408;59.388;17.798;2023-07-20T19:02:01;17.20;99.90
12688;DHT22;6408;59.388;17.798;2023-07-20T19:04:29;17.20;99.90
12688;DHT22;6408;59.388;17.798;2023-07-20T19:06:58;17.20;99.90
12688;DHT22;6408;59.388;17.798;2023-07-20T19:09:25;17.10;99.90
12688;DHT22;6408;59.388;17.798;2023-07-20T19:11:53;17.00;99.90
12688;DHT22;6408;59.388;17.798;2023-07-20T19:14:20;17.00;99.90
12688;DHT22;6408;59.388;17.798;2023-07-20T19:16:48;16.90;99.90
12688;DHT22;6408;59.388;17.798;2023-07-20T19:19:15;16.80;99.90
12688;DHT22;6408;59.388;17.798;2023-07-20T19:21:46;16.80;99.90
12688;DHT22;6408;59.388;17.798;2023-07-20T19:24:15;16.70;99.90
12688;DHT22;6408;59.388;17.798;2023-07-20T19:26:42;16.60;99.90
12688;DHT22;6408;59.388;17.798;2023-07-20T19:29:10;16.50;99.90
12688;DHT22;6408;59.388;17.798;2023-07-20T19:31:37;16.50;99.90
12688;DHT22;6408;59.388;17.798;2023-07-20T19:34:05;16.40;99.90